createdAt,value
2022-10-25T00:03:19.643Z,13.84
2022-10-25T00:08:12.723Z,13.56
2022-10-25T00:13:07.752Z,13.77
2022-10-25T00:18:01.409Z,13.53
2022-10-25T00:22:54.648Z,13.47
2022-10-25T00:27:47.788Z,13.52
2022-10-25T00:32:42.434Z,13.37
2022-10-25T00:37:36.801Z,13.25
2022-10-25T00:42:30.016Z,13.25
2022-10-25T00:47:42.132Z,13.36
2022-10-25T00:52:40.317Z,13.26
2022-10-25T00:57:38.959Z,13.22
2022-10-25T01:02:32.466Z,12.80
2022-10-25T01:07:25.876Z,13.06
2022-10-25T01:12:20.550Z,12.33
2022-10-25T01:17:20.679Z,13.10
2022-10-25T01:22:19.280Z,13.30
2022-10-25T01:27:31.289Z,13.17
2022-10-25T01:32:33.965Z,13.35
2022-10-25T01:37:32.125Z,13.04
2022-10-25T01:42:33.785Z,13.20
2022-10-25T01:47:35.580Z,13.10
2022-10-25T01:52:28.875Z,12.97
2022-10-25T01:57:35.972Z,13.19
2022-10-25T02:02:35.184Z,13.18
2022-10-25T02:07:36.911Z,13.02
2022-10-25T02:12:37.744Z,13.14
2022-10-25T02:17:35.286Z,12.72
2022-10-25T02:22:33.682Z,12.74
2022-10-25T02:27:27.983Z,13.10
2022-10-25T02:32:21.252Z,12.92
2022-10-25T02:37:15.814Z,12.84
2022-10-25T02:42:08.916Z,13.16
2022-10-25T02:47:02.013Z,12.77
2022-10-25T02:51:55.278Z,13.07
2022-10-25T02:56:52.612Z,12.55
2022-10-25T03:01:46.150Z,13.18
2022-10-25T03:06:39.688Z,12.98
2022-10-25T03:11:32.833Z,11.83
2022-10-25T03:16:27.589Z,12.92
2022-10-25T03:21:20.862Z,12.46
2022-10-25T03:26:14.040Z,12.32
2022-10-25T03:31:12.759Z,12.10
2022-10-25T03:36:07.876Z,12.69
2022-10-25T03:41:01.099Z,12.64
2022-10-25T03:45:54.251Z,12.59
2022-10-25T03:50:47.390Z,12.16
2022-10-25T03:55:42.049Z,12.40
2022-10-25T04:00:35.292Z,12.50
2022-10-25T04:05:29.023Z,12.50
2022-10-25T04:10:23.278Z,12.55
2022-10-25T04:15:19.955Z,12.39
2022-10-25T04:20:16.086Z,12.61
2022-10-25T04:25:10.160Z,12.67
2022-10-25T04:30:03.542Z,12.71
2022-10-25T04:34:58.834Z,12.58
2022-10-25T04:39:52.091Z,12.82
2022-10-25T04:44:45.433Z,12.39
2022-10-25T04:49:38.617Z,12.24
2022-10-25T04:54:33.148Z,12.77
2022-10-25T04:59:26.434Z,12.65
2022-10-25T05:04:19.691Z,12.88
2022-10-25T05:09:12.941Z,12.52
2022-10-25T05:14:07.581Z,12.71
2022-10-25T05:19:01.338Z,12.49
2022-10-25T05:23:58.897Z,12.84
2022-10-25T05:28:57.085Z,12.49
2022-10-25T05:33:52.828Z,12.70
2022-10-25T05:38:46.594Z,12.72
2022-10-25T05:43:41.858Z,12.72
2022-10-25T05:48:36.731Z,12.73
2022-10-25T05:53:31.189Z,12.72
2022-10-25T05:58:24.298Z,12.59
2022-10-25T06:03:17.586Z,12.74
2022-10-25T06:08:10.889Z,13.09
2022-10-25T06:13:05.376Z,13.21
2022-10-25T06:17:58.520Z,13.16
2022-10-25T06:22:51.592Z,13.43
2022-10-25T06:27:44.725Z,13.42
2022-10-25T06:32:39.351Z,13.74
2022-10-25T06:37:35.171Z,13.87
2022-10-25T06:42:28.419Z,14.16
2022-10-25T06:47:21.562Z,14.30
2022-10-25T06:52:16.242Z,14.45
2022-10-25T06:57:09.615Z,14.27
2022-10-25T07:02:03.906Z,14.84
2022-10-25T07:06:57.118Z,15.11
2022-10-25T07:11:51.818Z,14.97
2022-10-25T07:16:44.976Z,15.41
2022-10-25T07:21:38.279Z,15.79
2022-10-25T07:26:33.710Z,15.91
2022-10-25T07:31:30.805Z,16.59
2022-10-25T07:36:24.529Z,16.74
2022-10-25T07:41:17.807Z,17.15
2022-10-25T07:46:11.347Z,17.22
2022-10-25T07:51:07.472Z,17.57
2022-10-25T07:56:00.666Z,17.78
2022-10-25T08:00:53.775Z,17.99
2022-10-25T08:05:48.957Z,18.00
2022-10-25T08:10:44.961Z,18.39
2022-10-25T08:15:38.192Z,18.53
2022-10-25T08:21:00.191Z,18.42
2022-10-25T08:25:46.017Z,18.63
2022-10-25T08:30:39.260Z,18.66
2022-10-25T08:35:35.794Z,18.88
2022-10-25T08:40:36.732Z,18.98
2022-10-25T08:45:38.452Z,19.16
2022-10-25T08:50:38.981Z,19.70
2022-10-25T08:55:41.675Z,20.19
2022-10-25T09:00:49.944Z,21.14
2022-10-25T09:05:50.109Z,21.70
2022-10-25T09:10:51.739Z,21.56
2022-10-25T09:15:56.122Z,22.43
2022-10-25T09:20:51.903Z,22.56
2022-10-25T09:25:54.291Z,22.85
2022-10-25T09:30:51.797Z,22.63
2022-10-25T09:35:48.581Z,23.09
2022-10-25T09:40:48.296Z,22.74
2022-10-25T09:45:48.076Z,23.40
2022-10-25T09:50:48.997Z,23.46
2022-10-25T09:55:49.266Z,23.49
2022-10-25T10:00:42.923Z,23.42
2022-10-25T10:05:37.831Z,23.48
2022-10-25T10:10:36.177Z,23.42
2022-10-25T10:15:35.602Z,23.05
2022-10-25T10:20:30.283Z,23.29
2022-10-25T10:25:27.780Z,23.26
2022-10-25T10:30:26.146Z,23.12
2022-10-25T10:35:28.854Z,23.14
2022-10-25T10:40:25.611Z,22.99
2022-10-25T10:45:20.917Z,22.84
2022-10-25T10:50:28.820Z,22.86
2022-10-25T10:55:29.975Z,23.36
2022-10-25T11:00:24.443Z,23.46
2022-10-25T11:05:27.831Z,23.57
2022-10-25T11:10:29.841Z,23.56
2022-10-25T11:15:23.173Z,23.75
2022-10-25T11:20:29.022Z,23.86
2022-10-25T11:25:33.237Z,23.98
2022-10-25T11:30:32.925Z,24.11
2022-10-25T11:35:43.894Z,24.23
2022-10-25T11:40:42.066Z,24.23
2022-10-25T11:45:43.245Z,24.48
2022-10-25T11:50:44.401Z,24.63
2022-10-25T11:55:43.149Z,24.74
2022-10-25T12:00:48.385Z,24.75
2022-10-25T12:05:52.719Z,24.94
2022-10-25T12:10:51.175Z,25.05
2022-10-25T12:15:47.335Z,25.00
2022-10-25T12:20:42.032Z,25.28
2022-10-25T12:25:41.401Z,25.24
2022-10-25T12:30:35.613Z,25.44
2022-10-25T12:35:32.237Z,25.50
2022-10-25T12:40:26.499Z,25.59
2022-10-25T12:45:43.277Z,25.48
2022-10-25T12:50:49.041Z,25.70
2022-10-25T12:55:57.796Z,25.74
2022-10-25T13:01:07.005Z,25.80
2022-10-25T13:06:29.976Z,25.85
2022-10-25T13:11:34.142Z,25.87
2022-10-25T13:16:33.010Z,25.89
2022-10-25T13:21:59.389Z,25.66
2022-10-25T13:27:21.314Z,26.03
2022-10-25T13:32:25.824Z,25.94
2022-10-25T13:37:45.723Z,26.14
2022-10-25T13:42:39.746Z,25.97
2022-10-25T13:47:38.887Z,25.78
2022-10-25T13:52:34.851Z,25.82
2022-10-25T13:57:50.820Z,25.79
2022-10-25T14:03:23.588Z,25.41
2022-10-25T14:08:24.677Z,25.48
2022-10-25T14:13:25.787Z,25.33
2022-10-25T14:18:23.980Z,25.29
2022-10-25T14:23:22.569Z,25.46
2022-10-25T14:28:25.437Z,25.40
2022-10-25T14:33:26.256Z,25.13
2022-10-25T14:38:21.935Z,25.08
2022-10-25T14:43:23.970Z,24.87
2022-10-25T14:48:17.348Z,24.56
2022-10-25T14:53:29.608Z,24.80
2022-10-25T14:58:24.929Z,24.56
2022-10-25T15:03:18.608Z,24.73
2022-10-25T15:08:21.254Z,24.45
2022-10-25T15:13:17.270Z,24.29
2022-10-25T15:18:35.953Z,24.44
2022-10-25T15:23:33.129Z,23.43
2022-10-25T15:28:48.581Z,24.14
2022-10-25T15:33:42.365Z,23.22
2022-10-25T15:39:06.274Z,22.97
2022-10-25T15:43:54.777Z,24.20
2022-10-25T15:48:50.224Z,23.64
2022-10-25T15:53:47.678Z,24.12
2022-10-25T15:58:41.101Z,22.83
2022-10-25T16:03:34.479Z,23.40
2022-10-25T16:08:28.035Z,23.04
2022-10-25T16:13:31.078Z,23.53
2022-10-25T16:18:27.358Z,22.78
2022-10-25T16:23:23.982Z,23.55
2022-10-25T16:28:17.312Z,23.63
2022-10-25T16:33:17.725Z,23.48
2022-10-25T16:38:11.912Z,22.61
2022-10-25T16:43:08.181Z,22.52
2022-10-25T16:48:04.872Z,23.03
2022-10-25T16:53:07.935Z,23.26
2022-10-25T16:58:04.498Z,22.87
2022-10-25T17:02:57.943Z,23.19
2022-10-25T17:07:51.858Z,21.83
2022-10-25T17:12:49.034Z,21.59
2022-10-25T17:17:43.379Z,22.52
2022-10-25T17:22:36.878Z,21.82
2022-10-25T17:27:30.076Z,21.85
2022-10-25T17:32:26.281Z,22.01
2022-10-25T17:37:19.695Z,21.89
2022-10-25T17:42:12.981Z,22.23
2022-10-25T17:47:19.521Z,21.76
2022-10-25T17:52:14.129Z,21.32
2022-10-25T17:57:07.569Z,22.01
2022-10-25T18:02:03.863Z,21.49
2022-10-25T18:06:59.541Z,20.71
2022-10-25T18:11:57.019Z,21.47
2022-10-25T18:16:57.970Z,21.25
2022-10-25T18:21:52.551Z,21.42
2022-10-25T18:26:49.187Z,21.06
2022-10-25T18:31:53.030Z,21.43
2022-10-25T18:36:48.705Z,20.66
2022-10-25T18:41:42.863Z,21.64
2022-10-25T18:46:38.596Z,21.87
2022-10-25T18:52:12.431Z,21.92
2022-10-25T18:57:17.981Z,21.55
2022-10-25T19:02:17.676Z,20.52
2022-10-25T19:07:18.073Z,21.87
2022-10-25T19:12:21.997Z,20.49
2022-10-25T19:17:21.516Z,20.60
2022-10-25T19:22:19.797Z,20.37
2022-10-25T19:27:16.114Z,21.48
2022-10-25T19:32:09.818Z,21.55
2022-10-25T19:37:10.286Z,21.54
2022-10-25T19:42:20.283Z,21.11
2022-10-25T19:47:13.957Z,20.96
2022-10-25T19:52:36.802Z,21.30
2022-10-25T19:57:34.286Z,19.91
2022-10-25T20:02:30.935Z,21.06
2022-10-25T20:07:28.944Z,20.60
2022-10-25T20:12:34.932Z,19.84
2022-10-25T20:17:30.208Z,20.86
2022-10-25T20:22:27.651Z,20.78
2022-10-25T20:27:27.183Z,20.08
2022-10-25T20:32:28.000Z,19.06
2022-10-25T20:37:23.219Z,20.54
2022-10-25T20:42:24.656Z,19.36
2022-10-25T20:48:18.485Z,19.10
2022-10-25T20:53:17.691Z,19.39
2022-10-25T20:58:11.071Z,19.08
2022-10-25T21:03:04.484Z,18.91
2022-10-25T21:07:57.955Z,19.28
2022-10-25T21:12:52.638Z,19.89
2022-10-25T21:17:50.859Z,19.14
2022-10-25T21:22:55.744Z,19.13
2022-10-25T21:27:49.709Z,18.86
2022-10-25T21:32:47.585Z,19.57
2022-10-25T21:37:44.275Z,19.51
2022-10-25T21:42:40.415Z,18.15
2022-10-25T21:47:33.871Z,17.83
2022-10-25T21:52:33.274Z,18.88
2022-10-25T21:57:26.866Z,18.37
2022-10-25T22:02:20.601Z,17.84
2022-10-25T22:07:19.184Z,18.69
2022-10-25T22:12:15.815Z,18.53
2022-10-25T22:17:19.023Z,17.91
2022-10-25T22:22:42.607Z,18.83
2022-10-25T22:27:54.727Z,18.10
2022-10-25T22:39:28.438Z,17.31
2022-10-25T22:44:23.338Z,17.66
2022-10-25T22:49:19.586Z,18.01
2022-10-25T22:55:10.092Z,18.63
2022-10-25T23:00:16.615Z,18.19
2022-10-25T23:05:10.275Z,17.98
2022-10-25T23:10:03.645Z,18.54
2022-10-25T23:14:57.099Z,18.06
2022-10-25T23:19:51.870Z,17.12
2022-10-25T23:24:45.219Z,18.52
2022-10-25T23:29:39.644Z,18.06
2022-10-25T23:34:33.428Z,17.08
2022-10-25T23:39:40.640Z,18.43
2022-10-25T23:44:33.958Z,17.94
2022-10-25T23:49:27.258Z,18.36
2022-10-25T23:54:20.564Z,17.10
2022-10-25T23:59:15.345Z,17.79
